1991 DANNY (1991250N10334)


On this page: IBTrACS data - Map and Plots - Positions - Intensities - Original source data

Summary

Start Sep 7
End Sep 11
Basin NA
LMI 45 kt
Sources hurdat_atl
atcf
In WMO? Yes
Previous storm 1991 CLAUDETTE (NA)
Previous in basin 1991 CLAUDETTE (NA)
Concurrent storms 1991 IVY (WP)
1991 JOEL (WP)
1991 CLAUDETTE (NA)
1991 DANNY (NA)
1991 KINNA (WP)
1991 ERIKA (NA)
1992 HSK0192 (SI)
Next in basin 1991 ERIKA (NA)
Next storm 1991 KINNA (WP)

top of page IBTrACS Data: File Access

top of page HURSAT Data: File Access

Image of storm

top of page Plots:

Map of storm track will not appear if FTP is down
Time series of cyclone Maximum Sustained Wind will not appear if FTP is down
Time series of cyclone Minimum Central Pressure will not appear if FTP is down

top of page Track Data:Position

hurdat_atl atcf
Date Lat Lon Lat Lon
1991-09-07 00:00:00 10.4 -25.8 10.4 -25.8
1991-09-07 06:00:00 10.2 -27.5 10.2 -27.5
1991-09-07 12:00:00 10.0 -29.2 10.0 -29.2
1991-09-07 18:00:00 9.8 -30.6 9.8 -30.6
1991-09-08 00:00:00 9.7 -32.0 9.7 -32.0
1991-09-08 06:00:00 9.8 -33.4 9.8 -33.4
1991-09-08 12:00:00 10.3 -35.0 10.3 -35.0
1991-09-08 18:00:00 10.8 -36.5 10.8 -36.5
1991-09-09 00:00:00 11.3 -37.9 11.3 -37.9
1991-09-09 06:00:00 11.8 -39.6 11.8 -39.6
1991-09-09 12:00:00 12.5 -41.5 12.5 -41.5
1991-09-09 18:00:00 13.4 -43.4 13.4 -43.4
1991-09-10 00:00:00 14.2 -45.2 14.2 -45.2
1991-09-10 06:00:00 14.9 -47.3 14.9 -47.3
1991-09-10 12:00:00 15.3 -49.7 15.3 -49.7
1991-09-10 18:00:00 15.7 -52.1 15.7 -52.1
1991-09-11 00:00:00 15.8 -54.1 15.8 -54.1
1991-09-11 06:00:00 15.9 -56.1 15.9 -56.1
1991-09-11 12:00:00 16.0 -58.1 16.0 -58.1

top of pageTrack Data:Intensity

hurdat_atl atcf
Date Wind Pres Wind Pres
1991-09-07 00:00:00 25. 1010. 25. 1010.
1991-09-07 06:00:00 25. 1009. 25. 1009.
1991-09-07 12:00:00 25. 1008. 25. 1008.
1991-09-07 18:00:00 30. 1008. 30. 1008.
1991-09-08 00:00:00 30. 1007. 30. 1007.
1991-09-08 06:00:00 30. 1006. 30. 1006.
1991-09-08 12:00:00 35. 1005. 35. 1005.
1991-09-08 18:00:00 40. 1004. 40. 1004.
1991-09-09 00:00:00 40. 1002. 40. 1002.
1991-09-09 06:00:00 45. 1000. 45. 1000.
1991-09-09 12:00:00 45. 999. 45. 999.
1991-09-09 18:00:00 45. 999. 45. 999.
1991-09-10 00:00:00 45. 998. 45. 998.
1991-09-10 06:00:00 45. 999. 45. 999.
1991-09-10 12:00:00 45. 999. 45. 999.
1991-09-10 18:00:00 40. 1000. 40. 1000.
1991-09-11 00:00:00 35. 1002. 35. 1002.
1991-09-11 06:00:00 35. 1005. 35. 1005.
1991-09-11 12:00:00 30. 1010. 30. 1010.

top of page Links to source data

Source Source file Format
hurdat_atl tracks1851to2011.txt:1184:DANNY HURDAT
atcf bal071991.dat ATCF